Sonic Adventure (DX): Time Rankings

Records: Times | Rings | Scores | Races | Bosses | Freestyle
Leaders: Times | Rings | Scores | Races | Bosses | Freestyle | Overall
Rank Player Percent Points Date
1 Gamepro011 99.1% 49 08-25-19
2 Sonicspeedruner 98.0% 114 08-25-19
3 Niczur 95.3% 271 08-25-19
4 Dashjump 94.1% 338 08-25-19
5 Jawzun 94.1% 339 08-25-19
6 DarkPolarNight 93.1% 395 08-25-19
7 drminus 90.9% 522 08-25-19
8 F-Man 90.8% 527 08-25-19
9 THC98 90.4% 552 08-25-19
10 ike6252 88.5% 665 08-25-19
11 Avento128bits 88.1% 683 08-25-19
12 francisco 87.7% 707 08-25-19
13 DarkspinesSonic 87.2% 737 08-25-19
14 ethmar 87.2% 739 08-25-19
14 Marth 87.2% 739 08-25-19
16 frankoredstrato 85.8% 821 08-25-19
17 TheRealShadnic 84.2% 913 08-25-19
18 chainchump 84.2% 914 08-25-19
19 Paragod 82.9% 988 08-25-19
20 HyperSonic7701 82.8% 994 08-25-19
21 Calfd 82.4% 1018 08-25-19
22 Nim 81.4% 1074 08-25-19
23 Coolfansonic 79.7% 1170 08-25-19
24 InferSaime 79.5% 1184 08-25-19
25 Stefan 78.2% 1259 08-25-19
26 xXMegaManXx 78.1% 1266 08-25-19
27 PfoSonic 77.6% 1291 08-25-19
28 bertin 75.9% 1393 08-25-19
29 yoshifan 75.5% 1413 08-25-19
30 Dave Cramer 73.8% 1511 08-25-19
31 RPGnutter 73.6% 1523 08-25-19
32 sonicam 72.1% 1614 08-25-19
33 Cybrax 71.7% 1637 08-25-19
34 Ring Rush 69.1% 1786 08-25-19
35 mike89 68.3% 1833 08-25-19
36 NintenDan 68.1% 1845 08-25-19
37 chaos shadow 68.0% 1852 08-25-19
38 a_moustache 67.0% 1910 08-25-19
39 Dekuboy 66.0% 1964 08-25-19
40 SkyLights 64.6% 2046 08-25-19
41 Combo 63.2% 2128 08-25-19
42 SADXTryHard 60.7% 2273 08-25-19
43 P1 Pause 60.2% 2302 08-25-19
44 WeegeeZV 59.1% 2363 08-25-19
45 Groudon199 58.4% 2406 08-25-19
46 AxlThunder 57.9% 2432 08-25-19
47 Game_Complete 57.8% 2439 08-25-19
48 Shadow Jacky 57.5% 2455 08-25-19
49 VMU Player Banned 56.8% 2497 08-25-19
50 Thorn 56.4% 2518 08-25-19
51 SB737 55.2% 2588 08-25-19
52 The Knuckles Chao 55.1% 2596 08-25-19
53 SadisticMystic 54.9% 2610 08-25-19
54 Chao_Fan 54.8% 2611 08-25-19
55 Parax 54.7% 2618 08-25-19
56 Mastakirby 54.4% 2639 08-25-19
57 KinkyCadence 53.9% 2664 08-25-19
58 LittleBigness 53.9% 2667 08-25-19
58 mauserman 53.9% 2667 08-25-19
60 OmegaDJ 53.8% 2673 08-25-19
61 Psyknux 53.6% 2683 08-25-19
62 Auriman1 53.2% 2707 08-25-19
63 magnum12 53.0% 2717 08-25-19
64 Turbos 52.6% 2742 08-25-19
65 GerbilSoft 52.0% 2778 08-25-19
66 GreatStar 51.7% 2795 08-25-19
67 Webber3000 51.2% 2819 08-25-19
68 Hipertails12 50.8% 2844 08-25-19
69 N 50.5% 2861 08-25-19
70 James_Bertolli 48.2% 2994 08-25-19
71 Cream147 47.8% 3019 08-25-19
72 welldooder64 47.0% 3062 08-25-19
73 Skylace 47.0% 3065 08-25-19
74 Omega Rafael Santos 46.9% 3071 08-25-19
75 Quartz 46.6% 3086 08-25-19
76 Diamond 46.6% 3087 08-25-19
77 Psymar 46.4% 3100 08-25-19
78 SonicWinDX 45.9% 3127 08-25-19
79 teamblackarms 45.3% 3161 08-25-19
80 Cyan Ryan 44.8% 3194 08-25-19
81 Andrea Ritsu 44.5% 3207 08-25-19
82 buddychaos0415 44.5% 3208 08-25-19
83 SilverSonic 44.1% 3233 08-25-19
84 paulie9990 43.5% 3265 08-25-19
85 SilvertheAlmighty 43.4% 3275 08-25-19
86 itsPersonnal 43.0% 3296 08-25-19
87 metanightmare22 42.5% 3325 08-25-19
88 SPVLABS 42.0% 3357 08-25-19
89 CoEmpathy 40.9% 3420 08-25-19
90 lordmetalsonic 40.3% 3451 08-25-19
91 Arch 39.9% 3473 08-25-19
92 Termon 39.3% 3511 08-25-19
93 videogamemaster777 39.0% 3526 08-25-19
94 supersonicfan 38.7% 3546 08-25-19
95 Drakodan 38.4% 3561 08-25-19
96 Kanimayo_Jp 38.1% 3578 08-25-19
97 LilZero 37.8% 3598 08-25-19
98 FuzZerd 37.5% 3614 08-25-19
99 supersonic465 37.4% 3618 08-25-19
100 JamminX42 36.9% 3648 08-25-19
101 eggFL 36.8% 3655 08-25-19
102 BigAL49 36.6% 3665 08-25-19
103 Don 36.5% 3671 08-25-19
104 danieldude 36.1% 3695 08-25-19
105 Fr3nZy 35.3% 3741 08-25-19
106 Siavash Tazari 35.2% 3750 08-25-19
107 Cod4Scopes 34.4% 3794 08-25-19
108 f0rever_zer0 34.3% 3799 08-25-19
109 Zurggriff 34.2% 3803 08-25-19
110 Austinf 33.5% 3847 08-25-19
111 Therio 33.4% 3852 08-25-19
112 LinksDarkArrows 33.2% 3864 08-25-19
113 elecmouse101 32.5% 3903 08-25-19
114 Staf 32.2% 3923 08-25-19
115 R3FR4G 32.0% 3934 08-25-19
116 ModifiedMonkee 31.9% 3937 08-25-19
117 MiStEr_ShAoLiN 31.8% 3945 08-25-19
118 BrokenArthritis 31.6% 3958 08-25-19
119 Twilisailor 31.4% 3968 08-25-19
120 videogamer1014 31.3% 3971 08-25-19
121 Xia 30.8% 4000 08-25-19
122 AC-Tygo 30.4% 4023 08-25-19
123 welshmoose05 30.3% 4030 08-25-19
124 OddCook 29.6% 4072 08-25-19
125 The Great Lord Mick 29.4% 4085 08-25-19
126 Mcshuggets 29.3% 4092 08-25-19
127 Aitamen 29.0% 4105 08-25-19
128 Maxinfamily 29.0% 4106 08-25-19
129 joecoolgames 28.7% 4126 08-25-19
130 Matt_TY 28.5% 4138 08-25-19
131 SuperBlitzCraig 28.2% 4153 08-25-19
132 dabestgamer 28.1% 4157 08-25-19
132 Irregular Zero 28.1% 4157 08-25-19
134 SuperSonic101 27.2% 4210 08-25-19
135 Shadowthegreat 26.8% 4233 08-25-19
136 superjupi 26.7% 4237 08-25-19
137 Hunters13 26.7% 4241 08-25-19
138 thewaytodawnnn 26.5% 4251 08-25-19
139 Rolken 26.4% 4259 08-25-19
140 SaviourDC 26.0% 4281 08-25-19
141 iarebored 25.9% 4284 08-25-19
142 sonamyfan666 25.9% 4286 08-25-19
143 koinu93 25.8% 4291 08-25-19
144 SonicKnuckles 25.6% 4302 08-25-19
145 Spinballwizard 25.6% 4304 08-25-19
146 EngiNerd 24.4% 4371 08-25-19
147 adf 24.4% 4372 08-25-19
148 Megaman EXE565 23.6% 4421 08-25-19
149 The T 23.4% 4429 08-25-19
150 Sonic Singularity 22.8% 4463 08-25-19
151 Platformer 22.7% 4469 08-25-19
152 Pokemonmaster888 22.7% 4473 08-25-19
153 SeaWolf 22.6% 4479 08-25-19
154 Swift Hobo 22.2% 4498 08-25-19
155 timpkmn89 22.2% 4503 08-25-19
156 Rickyman48 21.5% 4542 08-25-19
157 Sondow 21.4% 4549 08-25-19
158 FoxBoy 20.8% 4580 08-25-19
159 Sm4sh 20.8% 4581 08-25-19
160 KitsuneYamaro 20.7% 4587 08-25-19
161 TFEC Headshot 20.5% 4600 08-25-19
162 Jerzia 20.3% 4611 08-25-19
163 Kogen Player Banned 19.7% 4642 08-25-19
164 Starlight Sable 19.7% 4644 08-25-19
165 iden1 19.3% 4668 08-25-19
166 IsisDazs 19.2% 4675 08-25-19
167 Powerjohn25 18.9% 4692 08-25-19
168 HyperSonic64 18.8% 4697 08-25-19
169 crazy1993 18.6% 4709 08-25-19
170 andres430 18.3% 4728 08-25-19
171 SonicU260 17.2% 4789 08-25-19
172 Swinkly 17.2% 4791 08-25-19
173 sonicd5 16.9% 4805 08-25-19
174 SonicAD 16.9% 4808 08-25-19
175 MPit08 16.9% 4809 08-25-19
176 iSonicKid2K 16.2% 4847 08-25-19
177 dShadow 16.0% 4859 08-25-19
178 Miles9999 15.8% 4873 08-25-19
179 Chawkk 15.6% 4881 08-25-19
179 Cutiefox 15.6% 4881 08-25-19
181 Crispian 15.4% 4893 08-25-19
182 Monkeh 15.3% 4897 08-25-19
183 DaDude 15.0% 4918 08-25-19
184 Drflash55 14.6% 4938 08-25-19
185 Badlex727 14.5% 4943 08-25-19
186 Bass 14.3% 4960 08-25-19
187 Yish 14.2% 4963 08-25-19
188 Cruizer 14.0% 4972 08-25-19
188 neaolas 14.0% 4972 08-25-19
190 Destroyer121121 14.0% 4976 08-25-19
190 zapp 14.0% 4976 08-25-19
192 UninspiredUsername 13.9% 4979 08-25-19
193 superiorsonic 13.7% 4990 08-25-19
194 gamefreak1292 13.6% 4997 08-25-19
195 Sora_yx 13.1% 5028 08-25-19
196 Cooljay 13.0% 5030 08-25-19
197 Chaos_Overlord 12.5% 5062 08-25-19
198 Valfore 12.1% 5083 08-25-19
199 Dage4Aquatic 11.8% 5102 08-25-19
200 GarnetPrincess 11.7% 5108 08-25-19
201 ShinigamiMachine 11.6% 5113 08-25-19
202 soniccoloursunleashed 11.5% 5117 08-25-19
203 Sonicsuperstar1 11.2% 5139 08-25-19
204 FocusSight64 10.7% 5163 08-25-19
205 Werey 10.7% 5165 08-25-19
206 booo95 10.6% 5173 08-25-19
207 Mo Player Banned 10.5% 5180 08-25-19
208 SirTobbii 10.4% 5181 08-25-19
209 Jua Rever 10.4% 5186 08-25-19
210 sonicspeed 10.2% 5195 08-25-19
211 Venick409 9.6% 5231 08-25-19
212 Sithwarrior26 9.4% 5239 08-25-19
213 nman36 9.4% 5240 08-25-19
214 ingx24 9.0% 5267 08-25-19
215 CyberShadow 8.9% 5271 08-25-19
216 dekki1234 8.5% 5293 08-25-19
217 Fozer 8.4% 5301 08-25-19
218 Egor305 8.3% 5305 08-25-19
219 Regano1000 8.2% 5312 08-25-19
220 Colomb_30 8.2% 5313 08-25-19
221 1stKirbyever 7.9% 5325 08-25-19
222 nuckrieg 7.7% 5341 08-25-19
223 TimTH 7.6% 5343 08-25-19
224 Brian_pso 7.6% 5346 08-25-19
225 douglas 7.3% 5364 08-25-19
226 TakaRikka 7.3% 5365 08-25-19
227 Th4tN1nj4Turtl3 7.2% 5368 08-25-19
228 Zip 7.1% 5377 08-25-19
229 Mariosonic15 6.8% 5391 08-25-19
230 wheatrich 6.7% 5396 08-25-19
231 MStitomix 6.6% 5403 08-25-19
232 HermitHelmet 6.5% 5408 08-25-19
232 ieatatsonic 6.5% 5408 08-25-19
234 niscool 6.4% 5414 08-25-19
235 Cort_pso 6.2% 5425 08-25-19
236 Got4n 6.2% 5429 08-25-19
237 Triseena 6.0% 5440 08-25-19
238 Jose_15 5.9% 5444 08-25-19
239 SuperSonicfan9595 5.7% 5457 08-25-19
240 Artie 5.7% 5458 08-25-19
240 BlankTH 5.7% 5458 08-25-19
242 Ace747 5.4% 5473 08-25-19
242 HHNNBBHHN 5.4% 5473 08-25-19
244 Richied 5.3% 5481 08-25-19
245 Paixii 5.2% 5485 08-25-19
246 Aiko 5.1% 5490 08-25-19
247 BallzeH 4.8% 5505 08-25-19
248 FSSRandomvids 4.8% 5507 08-25-19
249 slade23 4.8% 5509 08-25-19
250 PsyBorg 4.8% 5510 08-25-19
251 Mankster101 4.7% 5512 08-25-19
252 ArcticDragon 4.7% 5513 08-25-19
252 Jamixesa 4.7% 5513 08-25-19
254 BecauseWarAnvil 4.6% 5517 08-25-19
255 Nickson98 4.5% 5524 08-25-19
256 Crydio 4.5% 5526 08-25-19
257 TheUltraBlur 4.4% 5532 08-25-19
258 MarewBFN 4.2% 5544 08-25-19
259 stanski 4.1% 5546 08-25-19
260 tal39h 4.0% 5551 08-25-19
261 knuckles_sonic8 3.9% 5560 08-25-19
262 Blue Infamy 3.9% 5562 08-25-19
263 p0ker 3.8% 5565 08-25-19
264 ALundstrom10 3.8% 5566 08-25-19
265 ErrortheCucco 3.7% 5573 08-25-19
266 Rikum22 3.6% 5576 08-25-19
267 sonic1001 3.5% 5584 08-25-19
268 TheChaosEmeraIds 3.4% 5589 08-25-19
269 AJSIV 3.4% 5591 08-25-19
269 syco1098 3.4% 5591 08-25-19
271 Sonic the Hedgehod16 3.3% 5594 08-25-19
272 ASINISTERTACO 3.2% 5602 08-25-19
273 sonicfan9 3.1% 5607 08-25-19
274 themachoman202 2.9% 5618 08-25-19
275 MK 2.8% 5624 08-25-19
276 Fivavoa 2.7% 5627 08-25-19
277 Mr. Jones 2.7% 5629 08-25-19
278 djmat 2.7% 5631 08-25-19
279 arcfx1985 2.6% 5632 08-25-19
279 BlackArmsShadow 2.6% 5632 08-25-19
281 Sonique Hedgehog 2.6% 5635 08-25-19
282 ptorflaxendrosis 2.6% 5636 08-25-19
283 FlandreScarlet9999vr 2.5% 5639 08-25-19
284 Zeldocto 2.5% 5642 08-25-19
285 BeeAwwb 2.4% 5647 08-25-19
286 KaM Mark MaK 2.3% 5650 08-25-19
287 ShadouZaHejjihoggu 2.3% 5653 08-25-19
288 darkstarblaze 2.2% 5659 08-25-19
289 Sonic The Star 2.1% 5661 08-25-19
290 darkersupershadic 2.1% 5662 08-25-19
291 SpiritDragon1995 2.1% 5663 08-25-19
292 Sarger001 2.0% 5669 08-25-19
292 sonic29887 2.0% 5669 08-25-19
294 Grady219 2.0% 5671 08-25-19
295 Jawaah 1.9% 5675 08-25-19
295 shadowblast63 Player Banned 1.9% 5675 08-25-19
297 Antek 1.8% 5679 08-25-19
298 Klaus 1.8% 5681 08-25-19
299 BioShadow 1.7% 5688 08-25-19
300 Shanekilz 1.4% 5704 08-25-19
301 SkyBon 1.4% 5705 08-25-19
302 isaihtb11 1.3% 5709 08-25-19
303 OhNoes! 1.3% 5710 08-25-19
304 zaktu40 1.3% 5711 08-25-19
305 ArthurVGCP 1.2% 5713 08-25-19
306 gaara1234 1.2% 5715 08-25-19
306 S-MS32X-S 1.2% 5715 08-25-19
308 MastaToken 1.1% 5722 08-25-19
309 Mister_Slick 1.0% 5726 08-25-19
310 Sonic06Fan 1.0% 5730 08-25-19
311 Rush Hero 0.9% 5731 08-25-19
312 ChaosNexuss 0.9% 5732 08-25-19
313 oTaiIilLsS 0.8% 5736 08-25-19
314 SonicMega167 0.8% 5737 08-25-19
315 gamed00d 0.8% 5740 08-25-19
315 SilverK 0.8% 5740 08-25-19
317 Burningskull123 0.5% 5756 08-25-19
318 Heroes_Hater 0.5% 5758 08-25-19
319 Sonicontherun 0.3% 5767 08-25-19
320 antiwwe 0.2% 5773 08-25-19
321 Iwannabelink 0.2% 5775 08-25-19
322 Genuine Hedgehog 0.1% 5777 08-25-19
323 dragondragon18 0.1% 5781 08-25-19
324 SonicK100 0.1% 5782 08-25-19
325 Tyrouble 0.0% 5787 08-25-19
326 LancexExWx 0.0% 5788 08-25-19
326 neji_hyuuga 0.0% 5788 08-25-19
326 Over 0.0% 5788 08-25-19
326 sdj6707 Player Banned 0.0% 5788 08-25-19
326 Tran Sonic Fan Player Banned 0.0% 5788 08-25-19

This page is using the New Data Table System. [FUTURE]

Game ID: 3 | Category ID: 1
Hits: 2,718 | Hits This Month: 11 | DB Calls: 25 | Mem Usage: 5.88 MB | Time: 0.12s | Printable

The Sonic Center v3.9
Copyright 2003-2011 by The Sonic Center Team.